PWSweather.com
Personal Weather Stations
Station Observations

AwhituWaiuku, CA 268400

Lat: -37.058, Lon: -174.6346

Elevation: 250

Station Type: Personal

http://www.weather-display.com/windy/gb/grahamsbeach.htm

Latest ConditionsUpdated 12:00:04 PM GMT-12:48 Saturday, Aug 1, 2015
Currently Today's Max Today's Min Today's Average
Temperature 59.3°F15.2°C 61.3°F16.3°C 55.1°F12.8°C 56.8°F13.8°C
Dew Point 55.1°F12.8°C 57.4°F14.1°C 50.8°F10.4°C 53.4°F11.9°C
Winds 13.8 mph W22.2 kmh W 20.7 mph WNW33.3 kmh WNW - 15.2 mph 24.5 kmh
Wind Gusts 16.1 mph25.9 kmh 26.5 mph42.6 kmh - -
Humidity 86% 93% 84% 88%
Pressure 30.23 in1023.7 mb 30.24 in1024.0 mb 30.19 in1022.4 mb -
Precipitation - 0.01 in0.3 mm - -
Hour Temp Dew Point Humidity Winds Wind Gusts Pressure Precip Precip Rate Daily Precip Total
12:00 PM 59.3°F15.2°C 55.1°F12.8°C 86% 13.8 mph W22.2 kmh W 16.1 mph25.9 kmh 30.23 in1023.7 mb - 0.00 in0.0 mm 0.01 in0.3 mm
11:30 AM 61.3°F16.3°C 57.4°F14.1°C 87% 13.8 mph W22.2 kmh W 15.0 mph24.1 kmh 30.23 in1023.7 mb - 0.00 in0.0 mm 0.01 in0.3 mm
11:00 AM 60.2°F15.7°C 56.6°F13.7°C 88% 13.8 mph W22.2 kmh W 16.1 mph25.9 kmh 30.23 in1023.7 mb - 0.00 in0.0 mm 0.01 in0.3 mm
10:30 AM 59.6°F15.3°C 56.4°F13.6°C 89% 15.0 mph W24.1 kmh W 18.4 mph29.6 kmh 30.23 in1023.7 mb - 0.00 in0.0 mm 0.01 in0.3 mm
10:00 AM 58.8°F14.9°C 56.2°F13.4°C 91% 12.7 mph W20.4 kmh W 16.1 mph25.9 kmh 30.23 in1023.7 mb - 0.00 in0.0 mm 0.01 in0.3 mm
09:30 AM 57.3°F14.1°C 55.0°F12.8°C 92% 15.0 mph W24.1 kmh W 18.4 mph29.6 kmh 30.23 in1023.7 mb - 0.00 in0.0 mm 0.01 in0.3 mm
09:00 AM 57.1°F13.9°C 55.1°F12.8°C 93% 13.8 mph W22.2 kmh W 13.8 mph22.2 kmh 30.23 in1023.7 mb - 0.00 in0.0 mm 0.01 in0.3 mm
08:00 AM 56.2°F13.4°C 53.9°F12.2°C 92% 19.6 mph W31.5 kmh W 19.6 mph31.5 kmh 30.22 in1023.4 mb - 0.00 in0.0 mm 0.01 in0.3 mm
07:30 AM 56.3°F13.5°C 54.0°F12.2°C 92% 20.7 mph WNW33.3 kmh WNW 26.5 mph42.6 kmh 30.20 in1022.7 mb - 0.00 in0.0 mm 0.01 in0.3 mm
07:00 AM 56.2°F13.4°C 53.6°F12.0°C 91% 16.1 mph WNW25.9 kmh WNW 19.6 mph31.5 kmh 30.20 in1022.7 mb - 0.00 in0.0 mm 0.01 in0.3 mm
06:30 AM 56.0°F13.3°C 53.4°F11.9°C 91% 19.6 mph W31.5 kmh W 24.2 mph38.9 kmh 30.19 in1022.4 mb - 0.00 in0.0 mm 0.01 in0.3 mm
06:00 AM 55.5°F13.1°C 52.9°F11.6°C 91% 17.3 mph WNW27.8 kmh WNW 21.9 mph35.2 kmh 30.20 in1022.7 mb - 0.01 in0.3 mm 0.01 in0.3 mm
05:30 AM 56.7°F13.7°C 53.2°F11.8°C 88% 20.7 mph WNW33.3 kmh WNW 26.5 mph42.6 kmh 30.19 in1022.4 mb - 0.00 in0.0 mm 0.00 in0.0 mm
05:00 AM 55.9°F13.3°C 52.7°F11.5°C 89% 17.3 mph WNW27.8 kmh WNW 19.6 mph31.5 kmh 30.19 in1022.4 mb - 0.00 in0.0 mm 0.00 in0.0 mm
04:30 AM 56.0°F13.3°C 52.5°F11.4°C 88% 17.3 mph NW27.8 kmh NW 19.6 mph31.5 kmh 30.20 in1022.7 mb - 0.00 in0.0 mm 0.00 in0.0 mm
04:00 AM 56.4°F13.6°C 52.3°F11.3°C 86% 17.3 mph WNW27.8 kmh WNW 21.9 mph35.2 kmh 30.20 in1022.7 mb - 0.00 in0.0 mm 0.00 in0.0 mm
03:30 AM 56.3°F13.5°C 52.2°F11.2°C 86% 16.1 mph WNW25.9 kmh WNW 26.5 mph42.6 kmh 30.21 in1023.0 mb - 0.00 in0.0 mm 0.00 in0.0 mm
03:00 AM 55.6°F13.1°C 51.5°F10.8°C 86% 15.0 mph NW24.1 kmh NW 21.9 mph35.2 kmh 30.22 in1023.4 mb - 0.00 in0.0 mm 0.00 in0.0 mm
02:30 AM 55.1°F12.8°C 51.0°F10.6°C 86% 11.5 mph NW18.5 kmh NW 15.0 mph24.1 kmh 30.22 in1023.4 mb - 0.00 in0.0 mm 0.00 in0.0 mm
02:00 AM 55.7°F13.2°C 51.3°F10.7°C 85% 6.9 mph WNW11.1 kmh WNW 9.2 mph14.8 kmh 30.23 in1023.7 mb - 0.00 in0.0 mm 0.00 in0.0 mm
01:30 AM 55.8°F13.2°C 51.4°F10.8°C 85% 8.1 mph W13.0 kmh W 11.5 mph18.5 kmh 30.22 in1023.4 mb - 0.00 in0.0 mm 0.00 in0.0 mm
01:00 AM 55.8°F13.2°C 51.0°F10.6°C 84% 15.0 mph NW24.1 kmh NW 17.3 mph27.8 kmh 30.23 in1023.7 mb - 0.00 in0.0 mm 0.00 in0.0 mm
12:30 AM 55.5°F13.1°C 50.8°F10.4°C 84% 13.8 mph WNW22.2 kmh WNW 15.0 mph24.1 kmh 30.23 in1023.7 mb - 0.00 in0.0 mm 0.00 in0.0 mm
12:00 AM 55.5°F13.1°C 51.1°F10.6°C 85% 15.0 mph NW24.1 kmh NW 23.0 mph37.0 kmh 30.24 in1024.0 mb - 0.00 in0.0 mm 0.00 in0.0 mm